Main page
METAR-TAF:

METAR-TAF

Airports :

Barcelona–El Prat Airport

Barcelona, Spain

latitude: 41-17N, longitude: 002-04E, elevation: 4 m

Current weather observation

The report was made 30 minutes ago, at 14:00 UTC
Wind 11 kt from the East/Northeast
Temperature 19°C
Humidity 83%
Pressure 1023 hPa
Visibility 10 km or more
Scattered clouds at a height of 1200 ft
Scattered clouds at a height of 2400 ft

METAR: LEBL 141400Z 07011KT 9999 SCT012 SCT024 19/16 Q1023 NOSIG

Time: 15:30 (14:30 UTC)

Forecast

The report was made 3 hours and 30 minutes ago, at 11:00 UTC
Forecast valid from 14 at 12 UTC to 15 at 12 UTC
Wind 7 kt from the North/Northeast
Visibility 10 km or more
Scattered clouds at a height of 1800 ft
Temporary
from 15 at 02 UTC to 15 at 08 UTC
Visibility: 4000 m
Broken clouds at a height of 2000 ft
rain

TAF: LEBL 141100Z 1412/1512 03007KT 9999 SCT018 TX20/1412Z TN15/1506Z TEMPO 1502/1508 4000 RA BKN020

Weather observations and forecasts of more than 4000 airports (METAR and TAF reports).

The available stations are represented by yellow and red dots on the map.

Hover mouse over dot to see the name of the station.

Then click to see weather observations and forecasts.

To change the map : click on the green buttons with a black cross to zoom in, on the green button with a dash to zoom out, or on the green arrows for adjacent maps.


METAR-TAF: